createdAt,value
2022-12-16T00:00:32.755Z,-2.6
2022-12-16T00:05:20.956Z,-2.6
2022-12-16T00:10:26.247Z,-2.6
2022-12-16T00:15:32.611Z,-2.6
2022-12-16T00:20:22.740Z,-2.7
2022-12-16T00:25:27.737Z,-2.7
2022-12-16T00:30:16.741Z,-2.7
2022-12-16T00:35:22.829Z,-2.7
2022-12-16T00:40:29.837Z,-2.7
2022-12-16T00:45:17.908Z,-2.8
2022-12-16T00:50:24.078Z,-2.9
2022-12-16T00:55:30.007Z,-3.0
2022-12-16T01:00:19.966Z,-3.1
2022-12-16T01:05:24.550Z,-3.2
2022-12-16T01:10:30.744Z,-3.3
2022-12-16T01:15:19.272Z,-3.4
2022-12-16T01:20:30.678Z,-3.4
2022-12-16T01:25:31.358Z,-3.5
2022-12-16T01:30:20.448Z,-3.5
2022-12-16T01:36:01.666Z,-3.5
2022-12-16T01:40:33.187Z,-3.4
2022-12-16T01:45:21.521Z,-3.4
2022-12-16T01:50:27.697Z,-3.4
2022-12-16T01:55:16.760Z,-3.4
2022-12-16T02:00:23.891Z,-3.5
2022-12-16T02:05:28.916Z,-3.5
2022-12-16T02:10:18.172Z,-3.5
2022-12-16T02:15:22.854Z,-3.5
2022-12-16T02:20:52.447Z,-3.6
2022-12-16T02:25:17.985Z,-3.6
2022-12-16T02:30:24.080Z,-3.6
2022-12-16T02:35:30.107Z,-3.6
2022-12-16T02:40:19.718Z,-3.6
2022-12-16T02:45:25.342Z,-3.6
2022-12-16T02:50:31.250Z,-3.6
2022-12-16T02:55:20.225Z,-3.6
2022-12-16T03:00:41.453Z,-3.6
2022-12-16T03:05:32.645Z,-3.6
2022-12-16T03:10:21.534Z,-3.6
2022-12-16T03:15:27.463Z,-3.6
2022-12-16T03:20:17.132Z,-3.7
2022-12-16T03:25:22.331Z,-3.7
2022-12-16T03:30:28.485Z,-3.7
2022-12-16T03:35:17.391Z,-3.7
2022-12-16T03:41:14.094Z,-3.7
2022-12-16T03:45:29.568Z,-3.7
2022-12-16T03:50:18.616Z,-3.6
2022-12-16T03:55:24.606Z,-3.6
2022-12-16T04:00:31.625Z,-3.6
2022-12-16T04:05:20.406Z,-3.6
2022-12-16T04:10:25.079Z,-3.6
2022-12-16T04:15:30.960Z,-3.6
2022-12-16T04:20:26.912Z,-3.6
2022-12-16T04:25:25.999Z,-3.6
2022-12-16T04:30:32.009Z,-3.7
2022-12-16T04:35:21.037Z,-3.7
2022-12-16T04:40:28.552Z,-3.7
2022-12-16T04:45:16.307Z,-3.7
2022-12-16T04:50:22.241Z,-3.7
2022-12-16T04:55:28.385Z,-3.7
2022-12-16T05:00:23.336Z,-3.7
2022-12-16T05:05:22.786Z,-3.7
2022-12-16T05:10:28.912Z,-3.7
2022-12-16T05:15:19.548Z,-3.7
2022-12-16T05:20:25.405Z,-3.7
2022-12-16T05:25:30.668Z,-3.7
2022-12-16T05:30:19.650Z,-3.6
2022-12-16T05:35:25.731Z,-3.7
2022-12-16T05:40:43.522Z,-3.6
2022-12-16T05:45:20.827Z,-3.6
2022-12-16T05:50:26.850Z,-3.6
2022-12-16T05:55:34.231Z,-3.6
2022-12-16T06:00:23.646Z,-3.6
2022-12-16T06:05:28.647Z,-3.6
2022-12-16T06:10:16.343Z,-3.5
2022-12-16T06:15:22.199Z,-3.5
2022-12-16T06:20:41.921Z,-3.4
2022-12-16T06:25:17.389Z,-3.4
2022-12-16T06:30:23.568Z,-3.4
2022-12-16T06:35:29.449Z,-3.3
2022-12-16T06:40:19.298Z,-3.3
2022-12-16T06:45:26.207Z,-3.2
2022-12-16T06:50:30.701Z,-3.2
2022-12-16T06:55:19.653Z,-3.2
2022-12-16T07:00:38.687Z,-3.1
2022-12-16T07:05:31.055Z,-3.1
2022-12-16T07:10:19.976Z,-3.0
2022-12-16T07:15:25.939Z,-3.0
2022-12-16T07:20:33.362Z,-3.0
2022-12-16T07:25:21.122Z,-3.0
2022-12-16T07:30:27.135Z,-2.9
2022-12-16T07:35:16.159Z,-2.9
2022-12-16T07:40:31.391Z,-2.9
2022-12-16T07:45:28.469Z,-2.8
2022-12-16T07:50:17.462Z,-2.8
2022-12-16T07:55:23.445Z,-2.8
2022-12-16T08:00:30.486Z,-2.7
2022-12-16T08:05:18.792Z,-2.6
2022-12-16T08:10:24.760Z,-2.6
2022-12-16T08:15:30.556Z,-2.6
2022-12-16T08:20:20.868Z,-2.6
2022-12-16T08:25:25.711Z,-2.6
2022-12-16T08:30:31.892Z,-2.6
2022-12-16T08:35:20.731Z,-2.5
2022-12-16T08:40:36.238Z,-2.5
2022-12-16T08:45:34.337Z,-2.4
2022-12-16T08:50:22.174Z,-2.4
2022-12-16T08:55:29.998Z,-2.3
2022-12-16T09:00:18.805Z,-2.3
2022-12-16T09:05:22.483Z,-2.3
2022-12-16T09:10:28.434Z,-2.3
2022-12-16T09:15:16.936Z,-2.2
2022-12-16T09:20:24.022Z,-2.2
2022-12-16T09:25:28.909Z,-2.2
2022-12-16T09:30:17.972Z,-2.2
2022-12-16T09:35:24.008Z,-2.2
2022-12-16T09:40:30.779Z,-2.1
2022-12-16T09:45:19.013Z,-2.0
2022-12-16T09:50:25.347Z,-2.0
2022-12-16T09:55:31.183Z,-1.9
2022-12-16T10:00:21.264Z,-1.9
2022-12-16T10:05:26.861Z,-1.9
2022-12-16T10:10:31.580Z,-1.9
2022-12-16T10:15:21.471Z,-1.7
2022-12-16T10:20:29.023Z,-1.7
2022-12-16T10:25:21.692Z,-1.8
2022-12-16T10:30:22.670Z,-1.6
2022-12-16T10:35:28.694Z,-1.8
2022-12-16T10:40:18.507Z,-1.8
2022-12-16T10:45:23.839Z,-2.0
2022-12-16T10:50:30.102Z,-2.0
2022-12-16T10:55:18.921Z,-2.1
2022-12-16T11:00:35.859Z,-2.1
2022-12-16T11:05:30.217Z,-2.1
2022-12-16T11:10:22.981Z,-2.0
2022-12-16T11:15:31.692Z,-1.9
2022-12-16T11:20:34.538Z,-1.8
2022-12-16T11:25:20.238Z,-1.6
2022-12-16T11:30:26.661Z,-1.4
2022-12-16T11:35:32.351Z,-1.3
2022-12-16T11:40:21.963Z,-1.2
2022-12-16T11:45:27.642Z,-1.2
2022-12-16T11:50:16.657Z,-1.1
2022-12-16T11:55:41.743Z,-1.0
2022-12-16T12:00:57.309Z,-1.0
2022-12-16T12:05:20.156Z,-0.8
2022-12-16T12:10:24.166Z,-0.7
2022-12-16T12:15:28.847Z,-0.7
2022-12-16T12:20:18.727Z,-0.5
2022-12-16T12:25:23.921Z,-0.6
2022-12-16T12:30:30.347Z,-0.4
2022-12-16T12:35:18.947Z,-0.3
2022-12-16T12:40:42.109Z,-0.5
2022-12-16T12:45:31.041Z,-0.5
2022-12-16T12:50:20.147Z,-0.4
2022-12-16T12:55:26.224Z,-0.5
2022-12-16T13:00:33.221Z,-0.5
2022-12-16T13:05:24.382Z,-0.6
2022-12-16T13:10:26.714Z,-0.5
2022-12-16T13:15:16.397Z,-0.4
2022-12-16T13:20:23.738Z,-0.3
2022-12-16T13:25:28.587Z,-0.5
2022-12-16T13:30:17.601Z,-0.4
2022-12-16T13:35:23.672Z,-0.5
2022-12-16T13:40:31.151Z,-0.6
2022-12-16T13:50:24.749Z,-0.7
2022-12-16T13:55:30.898Z,-0.7
2022-12-16T14:00:20.886Z,-0.8
2022-12-16T14:05:25.325Z,-0.9
2022-12-16T14:10:31.262Z,-0.9
2022-12-16T14:15:19.987Z,-1.0
2022-12-16T14:20:32.018Z,-1.0
2022-12-16T14:25:32.165Z,-1.1
2022-12-16T14:30:21.085Z,-1.1
2022-12-16T14:35:27.352Z,-1.2
2022-12-16T14:40:17.101Z,-1.2
2022-12-16T14:45:22.402Z,-1.3
2022-12-16T14:50:28.383Z,-1.3
2022-12-16T14:55:17.443Z,-1.4
2022-12-16T15:00:25.515Z,-1.4
2022-12-16T15:05:28.819Z,-1.5
2022-12-16T15:10:17.861Z,-1.5
2022-12-16T15:15:23.729Z,-1.5
2022-12-16T15:20:30.968Z,-1.6
2022-12-16T15:25:18.815Z,-1.6
2022-12-16T15:30:24.829Z,-1.6
2022-12-16T15:35:31.080Z,-1.7
2022-12-16T15:40:20.722Z,-1.8
2022-12-16T15:45:26.019Z,-1.9
2022-12-16T15:50:32.242Z,-1.9
2022-12-16T15:55:21.189Z,-2.0
2022-12-16T16:00:28.511Z,-2.1
2022-12-16T16:05:17.040Z,-2.2
2022-12-16T16:10:22.584Z,-2.4
2022-12-16T16:15:28.429Z,-2.5
2022-12-16T16:20:18.406Z,-2.6
2022-12-16T16:25:23.452Z,-2.7
2022-12-16T16:30:29.612Z,-2.8
2022-12-16T16:35:18.604Z,-2.8
2022-12-16T16:40:31.125Z,-2.9
2022-12-16T16:45:30.654Z,-3.0
2022-12-16T16:50:19.824Z,-3.1
2022-12-16T16:55:25.800Z,-3.1
2022-12-16T17:00:33.220Z,-3.1
2022-12-16T17:05:20.337Z,-3.2
2022-12-16T17:10:26.445Z,-3.2
2022-12-16T17:15:32.586Z,-3.2
2022-12-16T17:20:22.215Z,-3.3
2022-12-16T17:25:27.586Z,-3.3
2022-12-16T17:30:16.505Z,-3.3
2022-12-16T17:35:22.614Z,-3.3
2022-12-16T17:40:29.831Z,-3.3
2022-12-16T17:45:17.715Z,-3.3
2022-12-16T17:50:23.863Z,-3.3
2022-12-16T17:55:29.872Z,-3.4
2022-12-16T18:00:19.873Z,-3.4
2022-12-16T18:05:28.475Z,-3.4
2022-12-16T18:10:30.304Z,-3.4
2022-12-16T18:15:19.799Z,-3.4
2022-12-16T18:20:26.151Z,-3.4
2022-12-16T18:25:31.220Z,-3.4
2022-12-16T18:30:20.212Z,-3.3
2022-12-16T18:35:26.364Z,-3.3
2022-12-16T18:40:34.490Z,-3.3
2022-12-16T18:45:21.548Z,-3.3
2022-12-16T18:50:31.546Z,-3.3
2022-12-16T18:55:16.469Z,-3.4
2022-12-16T19:00:23.950Z,-3.5
2022-12-16T19:05:28.024Z,-3.6
2022-12-16T19:10:17.093Z,-3.6
2022-12-16T19:15:23.926Z,-3.6
2022-12-16T19:21:34.982Z,-3.6
2022-12-16T19:25:17.914Z,-3.6
2022-12-16T19:30:25.164Z,-3.7
2022-12-16T19:35:30.108Z,-3.7
2022-12-16T19:40:19.950Z,-3.7
2022-12-16T19:45:25.328Z,-3.7
2022-12-16T19:50:32.795Z,-3.7
2022-12-16T19:55:20.203Z,-3.7
2022-12-16T20:00:27.372Z,-3.6
2022-12-16T20:05:32.338Z,-3.6
2022-12-16T20:10:20.985Z,-3.6
2022-12-16T20:15:27.563Z,-3.6
2022-12-16T20:20:17.928Z,-3.6
2022-12-16T20:25:22.707Z,-3.7
2022-12-16T20:30:28.709Z,-3.8
2022-12-16T20:35:17.759Z,-3.7
2022-12-16T20:40:25.229Z,-3.8
2022-12-16T20:45:29.858Z,-3.8
2022-12-16T20:50:18.833Z,-3.8
2022-12-16T20:55:25.018Z,-3.8
2022-12-16T21:00:32.191Z,-3.8
2022-12-16T21:05:19.258Z,-3.8
2022-12-16T21:10:25.625Z,-3.9
2022-12-16T21:15:31.132Z,-3.9
2022-12-16T21:20:21.083Z,-3.9
2022-12-16T21:25:26.992Z,-3.9
2022-12-16T21:30:32.246Z,-4.0
2022-12-16T21:35:21.289Z,-4.0
2022-12-16T21:40:29.355Z,-4.0
2022-12-16T21:45:16.428Z,-4.0
2022-12-16T21:50:22.459Z,-4.0
2022-12-16T21:55:28.625Z,-4.0
2022-12-16T22:00:18.629Z,-4.0
2022-12-16T22:05:22.908Z,-4.1
2022-12-16T22:10:29.119Z,-4.1
2022-12-16T22:15:17.898Z,-4.1
2022-12-16T22:20:24.767Z,-4.1
2022-12-16T22:25:29.898Z,-4.1
2022-12-16T22:30:18.918Z,-4.1
2022-12-16T22:35:24.911Z,-4.1
2022-12-16T22:40:32.436Z,-4.1
2022-12-16T22:45:20.084Z,-4.1
2022-12-16T22:50:26.101Z,-4.1
2022-12-16T22:55:32.273Z,-4.1
2022-12-16T23:00:22.028Z,-4.1
2022-12-16T23:05:28.269Z,-4.1
2022-12-16T23:10:17.097Z,-4.1
2022-12-16T23:15:22.877Z,-4.1
2022-12-16T23:20:30.106Z,-4.2
2022-12-16T23:25:17.758Z,-4.2
2022-12-16T23:30:23.820Z,-4.3
2022-12-16T23:35:29.841Z,-4.3
2022-12-16T23:40:19.668Z,-4.3
2022-12-16T23:45:25.154Z,-4.3
2022-12-16T23:50:17.111Z,-4.3
2022-12-16T23:55:19.983Z,-4.3
